createdAt,value
2022-10-11T00:02:15.733Z,13.75
2022-10-11T00:04:44.243Z,14.30
2022-10-11T00:07:13.995Z,14.82
2022-10-11T00:09:42.640Z,11.88
2022-10-11T00:12:11.269Z,12.93
2022-10-11T00:14:40.132Z,13.98
2022-10-11T00:17:08.701Z,14.18
2022-10-11T00:19:37.340Z,14.05
2022-10-11T00:22:05.951Z,11.43
2022-10-11T00:24:35.763Z,11.02
2022-10-11T00:27:04.462Z,11.10
2022-10-11T00:29:33.114Z,13.55
2022-10-11T00:32:01.423Z,17.05
2022-10-11T00:34:29.748Z,14.88
2022-10-11T00:36:58.385Z,19.85
2022-10-11T00:39:26.988Z,13.98
2022-10-11T00:41:56.803Z,17.85
2022-10-11T00:44:27.621Z,17.55
2022-10-11T00:46:59.137Z,18.67
2022-10-11T00:49:34.967Z,20.10
2022-10-11T00:52:08.318Z,20.60
2022-10-11T00:54:41.536Z,19.20
2022-10-11T00:57:19.695Z,17.30
2022-10-11T00:59:52.091Z,19.80
2022-10-11T01:02:22.006Z,18.15
2022-10-11T01:05:05.620Z,20.40
2022-10-11T01:07:40.730Z,18.95
2022-10-11T01:10:09.923Z,20.33
2022-10-11T01:12:58.897Z,16.27
2022-10-11T01:15:41.085Z,17.05
2022-10-11T01:18:20.511Z,17.23
2022-10-11T01:21:06.133Z,19.52
2022-10-11T01:24:27.223Z,19.58
2022-10-11T01:27:39.122Z,18.40
2022-10-11T01:30:23.183Z,19.35
2022-10-11T01:33:07.387Z,19.55
2022-10-11T01:35:42.599Z,18.27
2022-10-11T01:38:20.015Z,18.83
2022-10-11T01:40:53.733Z,23.38
2022-10-11T01:43:25.464Z,20.30
2022-10-11T01:45:59.179Z,17.15
2022-10-11T01:48:27.510Z,27.77
2022-10-11T01:50:59.209Z,21.98
2022-10-11T01:54:05.392Z,24.20
2022-10-11T01:56:50.173Z,21.17
2022-10-11T01:59:37.405Z,16.38
2022-10-11T02:02:18.693Z,16.27
2022-10-11T02:04:55.060Z,13.63
2022-10-11T02:07:30.336Z,19.50
2022-10-11T02:10:04.874Z,21.97
2022-10-11T02:12:41.053Z,19.10
2022-10-11T02:15:13.644Z,21.77
2022-10-11T02:17:47.770Z,20.87
2022-10-11T02:20:22.149Z,21.03
2022-10-11T02:22:58.902Z,17.07
2022-10-11T02:25:31.611Z,18.10
2022-10-11T02:28:05.486Z,20.10
2022-10-11T02:30:36.222Z,19.83
2022-10-11T02:33:12.532Z,16.80
2022-10-11T02:35:45.785Z,16.97
2022-10-11T02:38:20.909Z,17.90
2022-10-11T02:40:59.283Z,18.90
2022-10-11T02:43:37.412Z,19.33
2022-10-11T02:46:08.752Z,20.70
2022-10-11T02:48:40.355Z,21.57
2022-10-11T02:51:14.284Z,18.90
2022-10-11T02:53:42.940Z,21.03
2022-10-11T02:56:11.328Z,22.03
2022-10-11T02:58:39.723Z,22.17
2022-10-11T03:01:08.362Z,21.77
2022-10-11T03:03:38.403Z,29.10
2022-10-11T03:06:07.778Z,27.80
2022-10-11T03:08:36.490Z,30.42
2022-10-11T03:11:05.106Z,27.48
2022-10-11T03:13:33.731Z,21.48
2022-10-11T03:16:03.794Z,22.85
2022-10-11T03:18:32.748Z,23.38
2022-10-11T03:21:02.753Z,22.00
2022-10-11T03:23:31.407Z,19.42
2022-10-11T03:25:59.742Z,25.02
2022-10-11T03:28:28.537Z,23.40
2022-10-11T03:30:57.448Z,23.13
2022-10-11T03:33:25.765Z,22.70
2022-10-11T03:35:54.100Z,26.55
2022-10-11T03:38:24.309Z,21.38
2022-10-11T03:40:53.100Z,22.30
2022-10-11T03:43:21.431Z,20.85
2022-10-11T03:45:50.068Z,23.07
2022-10-11T03:48:18.743Z,21.55
2022-10-11T03:50:47.003Z,20.83
2022-10-11T03:53:15.867Z,19.33
2022-10-11T03:55:45.930Z,21.70
2022-10-11T03:58:14.296Z,22.95
2022-10-11T04:00:42.535Z,24.73
2022-10-11T04:03:10.869Z,20.10
2022-10-11T04:05:39.560Z,19.67
2022-10-11T04:08:11.999Z,19.38
2022-10-11T04:10:41.188Z,19.10
2022-10-11T04:13:12.025Z,18.90
2022-10-11T04:15:41.321Z,19.15
2022-10-11T04:18:10.035Z,20.45
2022-10-11T04:20:38.813Z,17.42
2022-10-11T04:23:07.158Z,20.35
2022-10-11T04:25:35.868Z,14.65
2022-10-11T04:28:04.637Z,17.58
2022-10-11T04:30:34.309Z,13.90
2022-10-11T04:33:03.095Z,17.40
2022-10-11T04:35:31.539Z,19.60
2022-10-11T04:38:00.145Z,17.97
2022-10-11T04:40:28.777Z,20.93
2022-10-11T04:42:57.371Z,13.60
2022-10-11T04:45:26.314Z,17.33
2022-10-11T04:47:56.140Z,18.37
2022-10-11T04:50:24.789Z,17.03
2022-10-11T04:52:59.021Z,20.13
2022-10-11T04:55:29.027Z,17.63
2022-10-11T04:57:57.729Z,17.83
2022-10-11T05:00:27.470Z,21.20
2022-10-11T05:02:57.505Z,17.30
2022-10-11T05:05:26.196Z,16.60
2022-10-11T05:07:54.787Z,16.37
2022-10-11T05:10:23.388Z,15.47
2022-10-11T05:12:51.643Z,17.53
2022-10-11T05:15:20.298Z,17.10
2022-10-11T05:17:48.870Z,14.90
2022-10-11T05:20:18.714Z,13.77
2022-10-11T05:22:47.360Z,16.13
2022-10-11T05:25:15.853Z,14.70
2022-10-11T05:27:45.610Z,17.55
2022-10-11T05:30:14.564Z,16.03
2022-10-11T05:32:43.207Z,15.97
2022-10-11T05:35:11.913Z,20.50
2022-10-11T05:37:41.650Z,19.23
2022-10-11T05:40:11.963Z,20.70
2022-10-11T05:42:40.605Z,22.43
2022-10-11T05:45:10.118Z,16.40
2022-10-11T05:47:38.742Z,24.15
2022-10-11T05:50:08.334Z,18.92
2022-10-11T05:52:37.269Z,21.02
2022-10-11T05:55:08.673Z,21.85
2022-10-11T05:57:37.282Z,25.92
2022-10-11T06:00:06.986Z,20.63
2022-10-11T06:02:41.378Z,19.83
2022-10-11T06:05:10.676Z,18.92
2022-10-11T06:07:39.765Z,17.77
2022-10-11T06:10:10.723Z,17.63
2022-10-11T06:12:39.813Z,24.60
2022-10-11T06:15:10.833Z,26.35
2022-10-11T06:17:39.493Z,23.63
2022-10-11T06:20:09.164Z,21.35
2022-10-11T06:22:37.794Z,21.65
2022-10-11T06:25:07.528Z,25.58
2022-10-11T06:27:38.996Z,23.35
2022-10-11T06:30:09.231Z,23.10
2022-10-11T06:32:37.835Z,24.38
2022-10-11T06:35:07.361Z,23.00
2022-10-11T06:37:36.054Z,22.98
2022-10-11T06:40:06.621Z,25.60
2022-10-11T06:42:36.609Z,23.00
2022-10-11T06:45:06.121Z,25.35
2022-10-11T06:47:34.733Z,22.27
2022-10-11T06:50:03.414Z,23.58
2022-10-11T06:52:32.045Z,26.67
2022-10-11T06:55:00.407Z,24.48
2022-10-11T06:57:30.280Z,21.13
2022-10-11T07:00:00.272Z,19.17
2022-10-11T07:02:28.892Z,18.25
2022-10-11T07:04:57.188Z,23.52
2022-10-11T07:07:25.836Z,22.27
2022-10-11T07:09:54.441Z,21.58
2022-10-11T07:12:23.033Z,22.38
2022-10-11T07:14:51.641Z,20.73
2022-10-11T07:17:21.370Z,20.20
2022-10-11T07:19:50.528Z,16.05
2022-10-11T07:22:18.988Z,17.95
2022-10-11T07:24:49.098Z,18.45
2022-10-11T07:27:17.417Z,16.88
2022-10-11T07:29:46.071Z,16.27
2022-10-11T07:32:16.387Z,14.63
2022-10-11T07:34:46.696Z,13.98
2022-10-11T07:37:15.316Z,20.98
2022-10-11T07:39:43.617Z,16.67
2022-10-11T07:42:12.267Z,13.68
2022-10-11T07:44:40.957Z,13.35
2022-10-11T07:47:11.459Z,17.80
2022-10-11T07:49:40.236Z,18.70
2022-10-11T07:52:09.908Z,29.17
2022-10-11T07:54:40.117Z,34.80
2022-10-11T07:57:08.710Z,31.70
2022-10-11T07:59:37.369Z,28.25
2022-10-11T08:02:05.970Z,33.47
2022-10-11T08:04:34.623Z,36.35
2022-10-11T08:07:02.932Z,36.50
2022-10-11T08:09:32.899Z,44.15
2022-10-11T08:12:01.527Z,35.95
2022-10-11T08:14:30.180Z,32.05
2022-10-11T08:17:00.349Z,33.78
2022-10-11T08:19:29.040Z,31.30
2022-10-11T08:21:57.628Z,32.25
2022-10-11T08:24:26.305Z,30.23
2022-10-11T08:26:56.721Z,27.25
2022-10-11T08:29:25.375Z,25.55
2022-10-11T08:31:54.039Z,22.80
2022-10-11T08:34:22.356Z,21.48
2022-10-11T08:36:51.021Z,23.33
2022-10-11T08:39:19.334Z,25.00
2022-10-11T08:41:56.285Z,20.33
2022-10-11T08:45:08.859Z,16.08
2022-10-11T08:47:38.590Z,18.13
2022-10-11T08:50:15.671Z,14.73
2022-10-11T08:52:49.858Z,13.55
2022-10-11T08:55:25.497Z,15.80
2022-10-11T08:57:57.397Z,16.67
2022-10-11T09:00:31.221Z,18.23
2022-10-11T09:03:21.844Z,19.00
2022-10-11T09:06:01.927Z,18.30
2022-10-11T09:08:38.877Z,23.20
2022-10-11T09:11:20.518Z,18.75
2022-10-11T09:14:09.845Z,25.73
2022-10-11T09:16:54.592Z,26.77
2022-10-11T09:20:05.331Z,23.52
2022-10-11T09:22:47.682Z,25.40
2022-10-11T09:25:24.426Z,22.05
2022-10-11T09:28:21.210Z,23.88
2022-10-11T09:30:53.869Z,19.92
2022-10-11T09:33:30.482Z,22.15
2022-10-11T09:35:59.742Z,22.83
2022-10-11T09:38:42.187Z,19.98
2022-10-11T09:41:19.453Z,23.30
2022-10-11T09:43:50.623Z,19.38
2022-10-11T09:46:37.708Z,20.50
2022-10-11T09:49:14.098Z,19.55
2022-10-11T09:51:49.267Z,16.33
2022-10-11T09:54:20.682Z,13.20
2022-10-11T09:56:49.271Z,15.98
2022-10-11T09:59:29.209Z,15.85
2022-10-11T10:02:24.620Z,16.35
2022-10-11T10:05:03.013Z,15.65
2022-10-11T10:07:34.798Z,17.27
2022-10-11T10:10:31.490Z,17.02
2022-10-11T10:13:03.622Z,14.48
2022-10-11T10:15:34.871Z,17.98
2022-10-11T10:18:10.416Z,18.88
2022-10-11T10:20:39.761Z,20.23
2022-10-11T10:23:12.090Z,16.98
2022-10-11T10:25:43.490Z,20.42
2022-10-11T10:28:22.972Z,19.77
2022-10-11T10:30:56.354Z,23.70
2022-10-11T10:33:30.810Z,22.35
2022-10-11T10:36:05.383Z,20.75
2022-10-11T10:38:41.735Z,16.38
2022-10-11T10:41:14.254Z,21.13
2022-10-11T10:43:46.603Z,19.35
2022-10-11T10:46:42.807Z,23.05
2022-10-11T10:49:52.370Z,24.90
2022-10-11T10:52:46.462Z,18.33
2022-10-11T10:55:26.646Z,19.77
2022-10-11T10:58:09.694Z,23.63
2022-10-11T11:00:47.596Z,17.90
2022-10-11T11:03:25.484Z,16.50
2022-10-11T11:06:04.270Z,18.20
2022-10-11T11:08:55.852Z,13.50
2022-10-11T11:11:44.073Z,15.57
2022-10-11T11:14:34.739Z,16.77
2022-10-11T11:17:16.773Z,14.40
2022-10-11T11:19:59.859Z,12.10
2022-10-11T11:22:42.418Z,13.85
2022-10-11T11:25:25.473Z,9.27
2022-10-11T11:28:15.038Z,12.52
2022-10-11T11:30:58.271Z,13.55
2022-10-11T11:33:37.925Z,12.25
2022-10-11T11:36:13.289Z,11.55
2022-10-11T11:38:49.696Z,11.02
2022-10-11T11:41:22.644Z,13.82
2022-10-11T11:44:00.031Z,14.60
2022-10-11T11:46:34.093Z,12.73
2022-10-11T11:49:12.779Z,11.30
2022-10-11T11:51:46.227Z,10.60
2022-10-11T11:54:32.890Z,11.65
2022-10-11T11:57:14.881Z,13.77
2022-10-11T11:59:48.808Z,14.52
2022-10-11T12:02:40.149Z,12.13
2022-10-11T12:05:09.606Z,14.68
2022-10-11T12:07:53.355Z,16.25
2022-10-11T12:10:32.254Z,10.25
2022-10-11T12:13:21.179Z,14.27
2022-10-11T12:16:11.839Z,16.15
2022-10-11T12:18:53.350Z,13.10
2022-10-11T12:21:27.379Z,14.13
2022-10-11T12:24:12.827Z,15.35
2022-10-11T12:26:47.678Z,16.38
2022-10-11T12:29:44.480Z,14.98
2022-10-11T12:32:49.965Z,15.27
2022-10-11T12:35:56.396Z,16.30
2022-10-11T12:38:28.493Z,18.88
2022-10-11T12:41:00.557Z,13.02
2022-10-11T12:43:37.310Z,9.88
2022-10-11T12:46:45.645Z,10.38
2022-10-11T12:50:09.040Z,13.85
2022-10-11T12:52:53.598Z,11.18
2022-10-11T12:55:39.197Z,10.65
2022-10-11T12:58:27.600Z,17.98
2022-10-11T13:01:23.230Z,12.73
2022-10-11T13:04:05.358Z,9.68
2022-10-11T13:06:38.376Z,14.73
2022-10-11T13:09:21.955Z,15.60
2022-10-11T13:11:55.233Z,13.25
2022-10-11T13:14:27.402Z,10.82
2022-10-11T13:17:08.630Z,13.00
2022-10-11T13:22:22.935Z,8.85
2022-10-11T13:24:51.445Z,11.85
2022-10-11T13:27:22.806Z,11.48
2022-10-11T13:29:54.134Z,10.77
2022-10-11T13:32:26.907Z,11.88
2022-10-11T13:34:58.616Z,9.73
2022-10-11T13:37:30.200Z,9.18
2022-10-11T13:39:59.544Z,9.68
2022-10-11T13:42:32.722Z,8.18
2022-10-11T13:45:02.290Z,10.23
2022-10-11T13:47:33.321Z,9.75
2022-10-11T13:50:22.767Z,11.27
2022-10-11T13:53:03.506Z,13.77
2022-10-11T13:55:35.103Z,12.55
2022-10-11T13:58:16.234Z,14.07
2022-10-11T14:00:56.039Z,11.38
2022-10-11T14:03:40.014Z,11.00
2022-10-11T14:06:09.411Z,12.68
2022-10-11T14:08:43.493Z,7.15
2022-10-11T14:11:13.814Z,11.43
2022-10-11T14:13:44.941Z,13.57
2022-10-11T14:16:28.796Z,8.43
2022-10-11T14:19:11.212Z,14.48
2022-10-11T14:21:52.101Z,9.48
2022-10-11T14:24:21.644Z,9.40
2022-10-11T14:26:53.574Z,9.35
2022-10-11T14:29:25.429Z,9.05
2022-10-11T14:31:57.315Z,10.95
2022-10-11T14:34:28.315Z,12.23
2022-10-11T14:36:57.003Z,13.93
2022-10-11T14:39:27.995Z,12.30
2022-10-11T14:41:56.603Z,9.98
2022-10-11T14:44:25.351Z,13.90
2022-10-11T14:46:55.137Z,15.40
2022-10-11T14:49:28.009Z,11.32
2022-10-11T14:51:59.359Z,13.80
2022-10-11T14:54:30.456Z,18.90
2022-10-11T14:57:02.495Z,14.07
2022-10-11T14:59:36.370Z,15.18
2022-10-11T15:02:07.110Z,12.85
2022-10-11T15:04:37.083Z,12.77
2022-10-11T15:07:06.128Z,12.63
2022-10-11T15:09:34.559Z,11.85
2022-10-11T15:12:03.171Z,13.90
2022-10-11T15:14:31.532Z,11.85
2022-10-11T15:17:00.217Z,10.80
2022-10-11T15:19:28.852Z,11.85
2022-10-11T15:21:58.531Z,16.33
2022-10-11T15:24:27.955Z,14.45
2022-10-11T15:26:56.284Z,8.55
2022-10-11T15:29:24.919Z,13.05
2022-10-11T15:31:53.530Z,12.10
2022-10-11T15:34:22.403Z,12.07
2022-10-11T15:36:51.277Z,11.20
2022-10-11T15:39:31.570Z,14.18
2022-10-11T15:42:00.598Z,14.98
2022-10-11T15:44:29.289Z,16.17
2022-10-11T15:46:57.971Z,16.40
2022-10-11T15:49:26.224Z,12.18
2022-10-11T15:51:54.542Z,16.10
2022-10-11T15:54:23.346Z,12.77
2022-10-11T15:56:53.010Z,14.73
2022-10-11T15:59:21.643Z,12.98
2022-10-11T16:01:50.335Z,10.70
2022-10-11T16:04:19.009Z,18.02
2022-10-11T16:06:48.088Z,13.48
2022-10-11T16:09:16.689Z,17.48
2022-10-11T16:11:44.972Z,14.75
2022-10-11T16:14:14.647Z,9.75
2022-10-11T16:16:43.260Z,11.00
2022-10-11T16:19:11.997Z,10.73
2022-10-11T16:21:40.600Z,13.20
2022-10-11T16:24:09.559Z,12.07
2022-10-11T16:26:38.174Z,13.27
2022-10-11T16:29:06.828Z,13.60
2022-10-11T16:31:36.540Z,9.70
2022-10-11T16:34:05.155Z,13.98
2022-10-11T16:36:36.100Z,14.48
2022-10-11T16:39:08.326Z,13.13
2022-10-11T16:41:37.183Z,19.23
2022-10-11T16:44:06.646Z,11.52
2022-10-11T16:46:37.295Z,19.95
2022-10-11T16:49:06.741Z,17.05
2022-10-11T16:51:35.378Z,10.93
2022-10-11T16:54:04.080Z,20.98
2022-10-11T16:56:37.332Z,17.58
2022-10-11T16:59:08.531Z,17.85
2022-10-11T17:01:39.962Z,13.88
2022-10-11T17:04:08.636Z,15.45
2022-10-11T17:06:37.803Z,14.38
2022-10-11T17:09:06.313Z,18.58
2022-10-11T17:11:34.917Z,14.15
2022-10-11T17:14:07.232Z,22.58
2022-10-11T17:16:37.527Z,41.60
2022-10-11T17:19:06.481Z,37.65
2022-10-11T17:21:34.726Z,29.88
2022-10-11T17:24:03.654Z,23.40
2022-10-11T17:26:32.780Z,17.15
2022-10-11T17:29:02.270Z,14.85
2022-10-11T17:31:31.273Z,16.00
2022-10-11T17:34:01.958Z,16.17
2022-10-11T17:36:34.538Z,13.32
2022-10-11T17:39:05.539Z,21.10
2022-10-11T17:41:34.198Z,16.88
2022-10-11T17:44:03.303Z,17.05
2022-10-11T17:46:33.443Z,19.08
2022-10-11T17:49:06.005Z,16.23
2022-10-11T17:51:36.361Z,13.63
2022-10-11T17:54:06.348Z,13.48
2022-10-11T17:56:37.965Z,13.75
2022-10-11T17:59:08.093Z,13.98
2022-10-11T18:01:37.242Z,13.48
2022-10-11T18:04:16.983Z,18.67
2022-10-11T18:06:47.196Z,15.57
2022-10-11T18:09:18.359Z,17.08
2022-10-11T18:11:47.669Z,15.18
2022-10-11T18:14:16.712Z,16.90
2022-10-11T18:16:45.540Z,17.08
2022-10-11T18:19:15.872Z,17.48
2022-10-11T18:21:44.609Z,18.67
2022-10-11T18:24:16.811Z,17.20
2022-10-11T18:26:48.576Z,15.65
2022-10-11T18:29:20.496Z,19.92
2022-10-11T18:31:49.347Z,16.30
2022-10-11T18:34:19.681Z,19.70
2022-10-11T18:36:51.388Z,19.40
2022-10-11T18:39:22.089Z,17.83
2022-10-11T18:41:50.915Z,18.45
2022-10-11T18:44:19.740Z,19.88
2022-10-11T18:46:50.238Z,21.10
2022-10-11T18:49:20.378Z,17.40
2022-10-11T18:51:49.650Z,24.80
2022-10-11T18:54:21.144Z,20.33
2022-10-11T18:56:50.788Z,21.30
2022-10-11T18:59:20.329Z,22.60
2022-10-11T19:01:52.134Z,23.05
2022-10-11T19:04:22.316Z,25.08
2022-10-11T19:06:53.261Z,16.35
2022-10-11T19:09:25.789Z,20.77
2022-10-11T19:11:55.852Z,22.80
2022-10-11T19:14:26.705Z,20.45
2022-10-11T19:16:56.175Z,21.85
2022-10-11T19:19:28.726Z,21.45
2022-10-11T19:21:58.185Z,21.98
2022-10-11T19:24:28.641Z,18.88
2022-10-11T19:27:02.537Z,23.60
2022-10-11T19:29:32.552Z,18.13
2022-10-11T19:32:04.179Z,20.80
2022-10-11T19:34:34.350Z,22.42
2022-10-11T19:37:04.115Z,19.52
2022-10-11T19:39:33.702Z,19.05
2022-10-11T19:42:04.852Z,20.05
2022-10-11T19:44:37.292Z,20.15
2022-10-11T19:47:10.070Z,25.35
2022-10-11T19:49:40.295Z,22.17
2022-10-11T19:52:09.545Z,22.20
2022-10-11T19:54:38.325Z,16.80
2022-10-11T19:57:08.843Z,17.40
2022-10-11T19:59:37.653Z,20.50
2022-10-11T20:02:06.387Z,28.75
2022-10-11T20:07:25.235Z,25.85
2022-10-11T20:09:54.017Z,22.98
2022-10-11T20:12:22.860Z,22.67
2022-10-11T20:14:51.509Z,26.95
2022-10-11T20:17:20.285Z,28.08
2022-10-11T20:19:49.221Z,21.17
2022-10-11T20:22:17.947Z,25.92
2022-10-11T20:24:47.747Z,23.83
2022-10-11T20:27:16.302Z,25.45
2022-10-11T20:29:44.599Z,24.95
2022-10-11T20:32:13.187Z,27.15
2022-10-11T20:34:41.466Z,24.60
2022-10-11T20:37:10.137Z,28.77
2022-10-11T20:39:38.801Z,24.75
2022-10-11T20:42:08.826Z,26.10
2022-10-11T20:44:37.185Z,32.90
2022-10-11T20:47:05.823Z,25.05
2022-10-11T20:49:34.292Z,23.80
2022-10-11T20:52:02.933Z,21.70
2022-10-11T20:54:34.159Z,22.42
2022-10-11T20:57:03.036Z,22.80
2022-10-11T20:59:33.039Z,26.98
2022-10-11T21:02:01.651Z,22.33
2022-10-11T21:04:30.759Z,29.70
2022-10-11T21:06:59.063Z,26.30
2022-10-11T21:09:27.780Z,25.85
2022-10-11T21:11:56.383Z,25.70
2022-10-11T21:14:24.804Z,26.02
2022-10-11T21:16:54.641Z,22.67
2022-10-11T21:19:23.390Z,22.42
2022-10-11T21:21:53.893Z,24.50
2022-10-11T21:24:22.971Z,29.38
2022-10-11T21:26:51.378Z,28.73
2022-10-11T21:29:20.214Z,33.22
2022-10-11T21:31:48.917Z,32.60
2022-10-11T21:34:19.179Z,31.05
2022-10-11T21:36:47.835Z,25.73
2022-10-11T21:39:16.388Z,32.28
2022-10-11T21:41:45.044Z,28.95
2022-10-11T21:44:13.642Z,29.83
2022-10-11T21:47:05.408Z,30.42
2022-10-11T21:49:32.269Z,27.35
2022-10-11T21:52:00.853Z,31.02
2022-10-11T21:54:30.065Z,29.80
2022-10-11T21:56:58.663Z,29.25
2022-10-11T21:59:27.443Z,37.05
2022-10-11T22:02:01.460Z,32.20
2022-10-11T22:04:32.103Z,33.78
2022-10-11T22:07:00.844Z,29.95
2022-10-11T22:09:29.937Z,29.15
2022-10-11T22:11:58.859Z,31.98
2022-10-11T22:14:27.649Z,31.73
2022-10-11T22:16:56.548Z,31.48
2022-10-11T22:19:25.379Z,35.58
2022-10-11T22:21:55.359Z,32.92
2022-10-11T22:24:24.012Z,33.03
2022-10-11T22:26:52.272Z,38.35
2022-10-11T22:29:20.980Z,35.85
2022-10-11T22:31:50.207Z,34.55
2022-10-11T22:34:18.924Z,36.70
2022-10-11T22:36:47.617Z,35.53
2022-10-11T22:39:17.667Z,35.95
2022-10-11T22:41:46.275Z,34.78
2022-10-11T22:44:15.378Z,40.03
2022-10-11T22:46:43.945Z,38.90
2022-10-11T22:49:12.858Z,39.15
2022-10-11T22:51:41.407Z,37.72
2022-10-11T22:54:10.052Z,38.25
2022-10-11T22:56:39.708Z,34.63
2022-10-11T22:59:08.085Z,36.28
2022-10-11T23:01:36.680Z,39.10
2022-10-11T23:04:05.710Z,36.95
2022-10-11T23:06:34.482Z,39.60
2022-10-11T23:09:03.416Z,30.05
2022-10-11T23:11:31.712Z,36.72
2022-10-11T23:14:01.406Z,33.97
2022-10-11T23:16:29.837Z,37.67
2022-10-11T23:18:58.150Z,35.22
2022-10-11T23:21:27.211Z,38.28
2022-10-11T23:23:56.500Z,34.28
2022-10-11T23:26:25.072Z,37.22
2022-10-11T23:28:56.074Z,36.42
2022-10-11T23:31:26.382Z,37.85
2022-10-11T23:33:55.510Z,32.28
2022-10-11T23:36:26.551Z,35.30
2022-10-11T23:38:56.969Z,37.28
2022-10-11T23:41:27.637Z,37.15
2022-10-11T23:43:56.955Z,34.47
2022-10-11T23:46:26.788Z,32.55
2022-10-11T23:48:55.584Z,33.60
2022-10-11T23:51:24.168Z,37.25
2022-10-11T23:53:53.751Z,36.40
2022-10-11T23:56:22.380Z,39.10
2022-10-11T23:58:50.956Z,39.08
